• Join FlightAware (Why Join?)
  • Login
  • US Flag 
05:40AM EDT


 

Airport Tracker/Info


-or-


 

Live Flight TrackerFlight Track Log ✈ OPT330 ✈ 27-Apr-2014 ✈ KAUS - KMDD

Flight Track Log - Related Links

Times and Time Zones

All times are in EDT time to prevent confusion due to time zone crossing. See the OPT330 flight status page for this flight to view local times or setup timezone preferences in your user account.

Time Position Orientation Groundspeed Altitude Reporting Facility
EDT Latitude Longitude Course Direction KTS MPH feet Rate Location/Type
06:34PM 30.1706 -97.6558 173° South 157 181 2,300  Level FlightAware ADS-B
06:35PM 30.1574 -97.6538 172° South 174 200 2,900 2,040 Climbing FlightAware ADS-B
06:35PM 30.1468 -97.6520 173° South 190 219 3,300 2,640 Climbing FlightAware ADS-B
06:36PM 30.1151 -97.6853 188° South 195 224 5,800 2,880 Climbing FlightAware ADS-B
06:36PM 30.1188 -97.6974 296° West 221 254 6,400 3,060 Climbing FlightAware ADS-B
06:36PM 30.1271 -97.7140 300° West 223 257 7,200 3,060 Climbing FlightAware ADS-B
06:36PM 30.1341 -97.7281 300° West 230 265 7,900 3,360 Climbing FlightAware ADS-B
06:37PM 30.1405 -97.7409 300° West 233 268 8,600 3,360 Climbing FlightAware ADS-B
06:37PM 30.1478 -97.7547 301° West 236 272 9,300 2,760 Climbing FlightAware ADS-B
06:37PM 30.1565 -97.7708 301° West 241 277 9,900 2,160 Climbing FlightAware ADS-B
06:37PM 30.1608 -97.7796 298° West 249 287 10,100 2,100 Climbing FlightAware ADS-B
06:37PM 30.1640 -97.7877 293° West 253 291 10,400 2,400 Climbing FlightAware ADS-B
06:37PM 30.1669 -97.7975 287° West 256 295 10,700 2,520 Climbing FlightAware ADS-B
06:38PM 30.1728 -97.8215 286° West 265 305 11,500 2,280 Climbing FlightAware ADS-B
06:38PM 30.1793 -97.8522 282° West 275 316 12,200 3,240 Climbing FlightAware ADS-B
06:39PM 30.1849 -97.8828 283° West 251 289 13,900 3,960 Climbing FlightAware ADS-B
06:39PM 30.1934 -97.9204 285° West 238 274 15,700 3,120 Climbing FlightAware ADS-B
06:39PM 30.1975 -97.9380 286° West 246 283 16,200 1,980 Climbing FlightAware ADS-B
06:39PM 30.2003 -97.9470 292° West 255 293 16,400 2,100 Climbing FlightAware ADS-B
06:40PM 30.2183 -97.9847 300° West 273 314 17,500 2,460 Climbing FlightAware ADS-B
06:40PM 30.2369 -98.0228 299° West 270 311 18,900 2,880 Climbing FlightAware ADS-B
06:41PM 30.2546 -98.0611 298° West 268 308 20,400 2,520 Climbing FlightAware ADS-B
06:41PM 30.2725 -98.1009 297° West 274 315 21,500 2,220 Climbing FlightAware ADS-B
06:42PM 30.2903 -98.1404 298° West 276 318 22,700 2,520 Climbing FlightAware ADS-B
06:42PM 30.3088 -98.1801 298° West 270 311 24,100 2,700 Climbing FlightAware ADS-B
06:42PM 30.3109 -98.1844 299° West 268 308 24,300 3,000 Climbing FlightAware ADS-B (KHOU)
06:43PM 30.3267 -98.2176 298° West 260 299 25,600 2,880 Climbing FlightAware ADS-B
06:43PM 30.3264 -98.2169 299° West 260 299 25,600 720 Level FlightAware ADS-B (KHOU)
06:43PM 30.3448 -98.2567 298° West 280 322 26,000 360 Climbing FlightAware ADS-B
06:44PM 30.3648 -98.3001 298° West 306 352 26,000  Level FlightAware ADS-B
06:44PM 30.3757 -98.3237 298° West 321 369 26,000  Level FlightAware ADS-B
06:44PM 30.3860 -98.3460 298° West 325 374 26,000  Level FlightAware ADS-B
06:45PM 30.4087 -98.3949 298° West 342 394 26,000  Level FlightAware ADS-B
06:45PM 30.4327 -98.4469 298° West 353 406 26,000  Level FlightAware ADS-B
06:46PM 30.4564 -98.4984 298° West 364 419 26,000  Level FlightAware ADS-B
06:46PM 30.4532 -98.4915 298° West 364 419 26,000  Level FlightAware ADS-B
06:46PM 30.4810 -98.5517 298° West 370 426 26,000  Level FlightAware ADS-B
06:47PM 30.4835 -98.5572 298° West 369 425 26,000  Level FlightAware ADS-B
06:47PM 30.5069 -98.6082 298° West 374 430 26,000  Level FlightAware ADS-B
06:47PM 30.5248 -98.6472 298° West 376 433 26,000  Level FlightAware ADS-B (KHOU)
06:48PM 30.5609 -98.7259 298° West 380 437 26,000  Level FlightAware ADS-B
06:48PM 30.5609 -98.7259 298° West 379 436 26,000  Level FlightAware ADS-B (KHOU)
06:49PM 30.5625 -98.7296 298° West 379 436 26,000  Level FlightAware ADS-B (KHOU)
06:49PM 30.6145 -98.8432 298° West 379 436 26,000  Level FlightAware ADS-B (KHOU)
06:49PM 30.6162 -98.8471 298° West 379 436 26,000 -1,140 Level FlightAware ADS-B (KHOU)
06:51PM 30.6869 -99.0023 298° West 374 430 24,300 -840 Descending FlightAware ADS-B (KHOU)
06:52PM 30.7217 -99.0789 298° West 375 432 24,000 -780 Descending Houston Center
06:53PM 30.7719 -99.1911 298° West 357 411 22,800 -1,020 Descending Houston Center
06:54PM 30.8169 -99.2900 298° West 350 403 22,000 -420 Descending Houston Center
06:55PM 30.8606 -99.3875 298° West 344 396 22,000  Level Houston Center
06:56PM 30.9050 -99.4844 298° West 342 394 22,000  Level Houston Center
06:57PM 30.9558 -99.5997 297° West 338 389 22,000  Level Houston Center
06:58PM 30.9981 -99.6944 297° West 334 384 22,000  Level Houston Center
06:59PM 31.0408 -99.7886 298° West 333 383 22,000  Level Houston Center
07:00PM 31.0825 -99.8833 297° West 332 382 22,000  Level Houston Center
07:01PM 31.1331 -99.9978 297° West 333 383 22,000  Level Fort Worth Center
07:02PM 31.1767 -100.0956 298° West 336 387 22,000  Level Fort Worth Center
07:03PM 31.2189 -100.1922 297° West 336 387 22,000 -780 Level Fort Worth Center
07:04PM 31.2711 -100.3094 298° West 337 388 20,500 -1,320 Descending Fort Worth Center
07:05PM 31.3142 -100.4086 297° West 341 392 19,300 -1,140 Descending Fort Worth Center
07:06PM 31.3553 -100.5031 297° West 332 382 18,200 -1,260 Descending Fort Worth Center
07:07PM 31.3958 -100.5961 297° West 327 376 16,800 -1,260 Descending Fort Worth Center
07:08PM 31.4392 -100.6967 297° West 317 365 15,700 -1,020 Descending Fort Worth Center
07:09PM 31.4786 -100.7878 297° West 315 362 14,700 -900 Descending Fort Worth Center
07:10PM 31.5178 -100.8797 297° West 315 362 13,900 -420 Descending Fort Worth Center
07:11PM 31.5586 -100.9700 298° West 315 362 13,900  Level Fort Worth Center
07:12PM 31.5972 -101.0581 297° West 309 356 13,900  Level Fort Worth Center
07:13PM 31.6450 -101.1558 300° West 293 337 13,900  Level Fort Worth Center
07:14PM 31.6919 -101.2300 307° West 290 334 13,900  Level Fort Worth Center
07:16PM 31.7433 -101.3064 308° West 294 338 14,000 -120 Climbing Fort Worth Center
07:17PM 31.7908 -101.3800 307° West 284 327 13,700 -660 Descending Fort Worth Center
07:18PM 31.8353 -101.4489 307° West 269 310 12,700 -1,080 Descending Fort Worth Center
07:19PM 31.8750 -101.5081 308° West 234 269 11,500 -1,260 Descending Fort Worth Center
07:20PM 31.9325 -101.5681 318° Northwest 233 268 10,100 -1,260 Descending Fort Worth Center
07:21PM 31.9814 -101.6158 320° Northwest 232 267 8,900 -1,080 Descending Fort Worth Center
07:22PM 32.0289 -101.6650 319° Northwest 231 266 7,900 -900 Descending Fort Worth Center
07:23PM 32.0700 -101.7069 319° Northwest 204 235 7,100 -900 Descending Fort Worth Center
07:24PM 32.1072 -101.7503 315° West 193 222 6,100 -900 Descending Fort Worth Center
07:25PM 32.1081 -101.8019 271° West 174 200 5,300 -540 Descending Fort Worth Center
07:26PM 32.0942 -101.8628 255° West 167 192 5,000 -180 Descending Fort Worth Center
07:27PM 32.0825 -101.9117 254° West 160 184 5,000  Level Fort Worth Center
07:28PM 32.0711 -101.9608 255° West 159 183 5,000 -300 Level Fort Worth Center
07:29PM 32.0644 -101.9931 256° West 115 132 4,400 -540 Descending Fort Worth Center
07:30PM 32.0572 -102.0269 256° West 109 125 3,900 -540 Descending Fort Worth Center
07:31PM 32.0492 -102.0606 254° West 109 125 3,400 -420 Descending Fort Worth Center
07:32PM 32.0400 -102.0967 253° West 109 125 3,100 -300 Descending Fort Worth Center
07:34PM 32.0333 -102.1000 270° West  Level FlightAware Approximate
07:41PM 32.0365 -102.1010 270° West  Level Estimated